createdAt,value
2022-10-23T00:01:41.524Z,53.59
2022-10-23T00:04:16.994Z,54.61
2022-10-23T00:06:44.381Z,53.91
2022-10-23T00:09:13.327Z,52.70
2022-10-23T00:11:41.378Z,52.64
2022-10-23T00:14:09.090Z,52.98
2022-10-23T00:16:36.287Z,54.82
2022-10-23T00:19:03.750Z,55.09
2022-10-23T00:21:30.422Z,54.31
2022-10-23T00:23:57.372Z,53.87
2022-10-23T00:26:24.174Z,53.25
2022-10-23T00:28:57.191Z,54.48
2022-10-23T00:31:25.270Z,53.99
2022-10-23T00:33:52.515Z,54.86
2022-10-23T00:36:21.220Z,54.58
2022-10-23T00:38:49.196Z,54.86
2022-10-23T00:41:28.475Z,54.54
2022-10-23T00:44:24.312Z,55.25
2022-10-23T00:46:50.951Z,54.38
2022-10-23T00:49:17.485Z,54.24
2022-10-23T00:51:51.843Z,53.33
2022-10-23T00:54:24.377Z,53.11
2022-10-23T00:56:54.672Z,53.21
2022-10-23T00:59:21.216Z,52.61
2022-10-23T01:01:48.357Z,53.03
2022-10-23T01:04:15.188Z,53.46
2022-10-23T01:06:46.603Z,54.06
2022-10-23T01:09:28.089Z,53.49
2022-10-23T01:12:24.247Z,54.69
2022-10-23T01:15:07.844Z,54.15
2022-10-23T01:17:45.552Z,54.25
2022-10-23T01:20:33.019Z,53.82
2022-10-23T01:23:21.458Z,52.65
2022-10-23T01:26:07.889Z,52.27
2022-10-23T01:28:59.292Z,51.76
2022-10-23T01:31:42.462Z,51.62
2022-10-23T01:34:23.620Z,51.57
2022-10-23T01:36:53.604Z,51.51
2022-10-23T01:39:35.719Z,51.32
2022-10-23T01:42:15.209Z,50.94
2022-10-23T01:44:51.539Z,50.77
2022-10-23T01:47:25.652Z,50.96
2022-10-23T01:49:53.592Z,51.05
2022-10-23T01:52:21.047Z,51.14
2022-10-23T01:54:50.752Z,51.06
2022-10-23T01:57:20.392Z,51.59
2022-10-23T01:59:53.453Z,51.81
2022-10-23T02:02:22.466Z,52.28
2022-10-23T02:04:57.076Z,52.64
2022-10-23T02:07:24.340Z,52.29
2022-10-23T02:09:50.959Z,52.06
2022-10-23T02:13:13.887Z,51.92
2022-10-23T02:16:18.780Z,52.35
2022-10-23T02:19:29.814Z,53.07
2022-10-23T02:22:07.563Z,52.71
2022-10-23T02:25:08.359Z,52.60
2022-10-23T02:27:58.319Z,52.86
2022-10-23T02:30:25.065Z,52.70
2022-10-23T02:32:55.252Z,52.40
2022-10-23T02:35:24.768Z,52.64
2022-10-23T02:37:59.877Z,52.69
2022-10-23T02:40:41.084Z,52.73
2022-10-23T02:43:36.707Z,52.99
2022-10-23T02:46:30.601Z,53.03
2022-10-23T02:49:16.743Z,52.99
2022-10-23T02:52:28.191Z,52.82
2022-10-23T02:55:29.022Z,53.15
2022-10-23T02:58:27.448Z,54.08
2022-10-23T03:01:09.590Z,53.89
2022-10-23T03:03:45.715Z,53.29
2022-10-23T03:06:13.118Z,52.94
2022-10-23T03:09:03.994Z,52.96
2022-10-23T03:11:30.631Z,52.96
2022-10-23T03:13:57.388Z,53.24
2022-10-23T03:16:24.395Z,53.44
2022-10-23T03:18:51.036Z,53.85
2022-10-23T03:21:17.612Z,53.23
2022-10-23T03:23:44.146Z,52.77
2022-10-23T03:26:10.685Z,53.02
2022-10-23T03:28:37.234Z,52.87
2022-10-23T03:31:04.514Z,52.71
2022-10-23T03:33:32.406Z,52.05
2022-10-23T03:35:58.937Z,52.30
2022-10-23T03:38:25.489Z,52.72
2022-10-23T03:40:52.159Z,52.72
2022-10-23T03:43:18.699Z,53.05
2022-10-23T03:45:45.214Z,52.84
2022-10-23T03:48:11.773Z,52.92
2022-10-23T03:50:38.286Z,52.65
2022-10-23T03:53:04.799Z,52.70
2022-10-23T03:55:31.640Z,52.29
2022-10-23T03:57:58.198Z,52.51
2022-10-23T04:00:24.811Z,52.30
2022-10-23T04:02:51.377Z,52.40
2022-10-23T04:05:18.029Z,52.35
2022-10-23T04:07:44.549Z,52.37
2022-10-23T04:10:11.110Z,53.10
2022-10-23T04:12:37.659Z,55.36
2022-10-23T04:15:04.785Z,54.71
2022-10-23T04:17:31.443Z,54.92
2022-10-23T04:19:57.972Z,54.73
2022-10-23T04:22:27.477Z,54.29
2022-10-23T04:24:55.381Z,53.37
2022-10-23T04:27:21.983Z,52.79
2022-10-23T04:29:49.258Z,53.14
2022-10-23T04:32:15.994Z,54.17
2022-10-23T04:34:42.579Z,54.57
2022-10-23T04:37:09.099Z,55.93
2022-10-23T04:39:35.634Z,55.16
2022-10-23T04:42:02.216Z,54.64
2022-10-23T04:44:28.739Z,55.03
2022-10-23T04:46:55.376Z,54.17
2022-10-23T04:49:21.974Z,53.88
2022-10-23T04:51:48.512Z,53.32
2022-10-23T04:54:15.070Z,53.25
2022-10-23T04:56:41.633Z,52.97
2022-10-23T04:59:08.254Z,52.92
2022-10-23T05:01:35.014Z,52.90
2022-10-23T05:04:01.684Z,52.75
2022-10-23T05:06:28.203Z,52.78
2022-10-23T05:08:54.896Z,53.25
2022-10-23T05:11:21.795Z,53.16
2022-10-23T05:13:48.331Z,52.86
2022-10-23T05:16:42.172Z,52.43
2022-10-23T05:19:12.535Z,52.12
2022-10-23T05:21:40.293Z,52.46
2022-10-23T05:24:07.091Z,52.89
2022-10-23T05:26:33.605Z,52.76
2022-10-23T05:29:00.125Z,52.71
2022-10-23T05:31:26.712Z,52.99
2022-10-23T05:33:56.199Z,53.33
2022-10-23T05:36:25.446Z,53.09
2022-10-23T05:38:52.611Z,53.93
2022-10-23T05:41:21.517Z,56.07
2022-10-23T05:43:48.082Z,56.30
2022-10-23T05:46:14.681Z,54.89
2022-10-23T05:48:41.212Z,54.83
2022-10-23T05:51:10.632Z,54.21
2022-10-23T05:53:40.139Z,53.57
2022-10-23T05:56:09.412Z,53.31
2022-10-23T05:58:36.334Z,53.56
2022-10-23T06:01:08.900Z,53.57
2022-10-23T06:03:36.725Z,53.35
2022-10-23T06:06:04.255Z,53.17
2022-10-23T06:08:35.074Z,54.02
2022-10-23T06:11:28.544Z,53.42
2022-10-23T06:13:55.103Z,52.89
2022-10-23T06:16:27.376Z,52.74
2022-10-23T06:18:55.060Z,53.08
2022-10-23T06:21:21.884Z,52.65
2022-10-23T06:23:48.438Z,52.85
2022-10-23T06:26:17.846Z,53.48
2022-10-23T06:28:47.079Z,52.95
2022-10-23T06:31:16.639Z,53.26
2022-10-23T06:33:43.233Z,53.12
2022-10-23T06:36:10.662Z,52.98
2022-10-23T06:38:40.337Z,52.93
2022-10-23T06:41:17.231Z,52.84
2022-10-23T06:43:43.883Z,53.00
2022-10-23T06:46:10.909Z,52.57
2022-10-23T06:48:37.460Z,52.64
2022-10-23T06:51:07.979Z,54.46
2022-10-23T06:53:38.522Z,54.03
2022-10-23T06:56:07.978Z,52.99
2022-10-23T06:58:38.905Z,52.76
2022-10-23T07:01:11.350Z,52.29
2022-10-23T07:03:37.962Z,51.95
2022-10-23T07:06:07.666Z,52.78
2022-10-23T07:08:34.359Z,51.85
2022-10-23T07:11:10.404Z,52.00
2022-10-23T07:13:38.609Z,51.74
2022-10-23T07:16:20.455Z,51.22
2022-10-23T07:18:48.161Z,51.11
2022-10-23T07:21:14.743Z,51.29
2022-10-23T07:23:41.513Z,51.07
2022-10-23T07:26:16.856Z,51.45
2022-10-23T07:28:46.314Z,50.81
2022-10-23T07:31:13.452Z,51.43
2022-10-23T07:33:40.087Z,50.36
2022-10-23T07:36:08.915Z,50.59
2022-10-23T07:38:35.864Z,50.08
2022-10-23T07:41:02.898Z,49.83
2022-10-23T07:43:29.629Z,49.86
2022-10-23T07:45:56.625Z,49.47
2022-10-23T07:48:24.015Z,49.83
2022-10-23T07:50:51.288Z,49.51
2022-10-23T07:53:25.107Z,49.26
2022-10-23T07:55:57.924Z,48.88
2022-10-23T07:58:25.452Z,48.46
2022-10-23T08:01:03.497Z,49.69
2022-10-23T08:03:33.169Z,48.97
2022-10-23T08:06:00.524Z,48.72
2022-10-23T08:08:27.480Z,47.99
2022-10-23T08:10:55.304Z,47.96
2022-10-23T08:13:22.904Z,47.34
2022-10-23T08:15:51.407Z,47.44
2022-10-23T08:18:18.218Z,47.25
2022-10-23T08:20:48.170Z,47.64
2022-10-23T08:23:18.426Z,47.17
2022-10-23T08:25:46.279Z,47.72
2022-10-23T08:28:12.857Z,47.64
2022-10-23T08:30:39.427Z,47.18
2022-10-23T08:33:07.007Z,47.13
2022-10-23T08:35:37.853Z,47.25
2022-10-23T08:38:05.985Z,47.97
2022-10-23T08:40:34.865Z,47.26
2022-10-23T08:43:24.627Z,47.68
2022-10-23T08:46:01.274Z,47.09
2022-10-23T08:48:38.496Z,48.90
2022-10-23T08:51:13.910Z,48.00
2022-10-23T08:53:54.359Z,47.32
2022-10-23T08:56:31.887Z,46.81
2022-10-23T08:59:20.375Z,46.48
2022-10-23T09:01:55.670Z,46.10
2022-10-23T09:04:22.400Z,46.20
2022-10-23T09:07:03.727Z,45.12
2022-10-23T09:10:02.696Z,45.62
2022-10-23T09:12:30.819Z,45.36
2022-10-23T09:15:05.537Z,45.58
2022-10-23T09:17:35.754Z,45.12
2022-10-23T09:20:25.175Z,44.90
2022-10-23T09:23:04.596Z,45.32
2022-10-23T09:25:38.747Z,44.17
2022-10-23T09:28:05.976Z,43.13
2022-10-23T09:30:39.933Z,44.54
2022-10-23T09:33:26.052Z,44.96
2022-10-23T09:36:01.146Z,44.23
2022-10-23T09:38:38.347Z,43.08
2022-10-23T09:41:20.299Z,42.79
2022-10-23T09:43:47.497Z,44.28
2022-10-23T09:46:14.077Z,44.58
2022-10-23T09:48:42.430Z,45.44
2022-10-23T09:51:19.933Z,45.69
2022-10-23T09:53:57.908Z,45.63
2022-10-23T09:56:33.062Z,45.61
2022-10-23T09:59:05.599Z,43.53
2022-10-23T10:01:43.857Z,43.18
2022-10-23T10:04:10.649Z,42.86
2022-10-23T10:06:37.392Z,43.04
2022-10-23T10:09:12.561Z,43.42
2022-10-23T10:11:59.213Z,43.74
2022-10-23T10:15:07.181Z,43.06
2022-10-23T10:17:58.488Z,44.07
2022-10-23T10:20:49.772Z,42.79
2022-10-23T10:23:43.801Z,41.25
2022-10-23T10:29:05.637Z,39.42
2022-10-23T10:32:05.975Z,38.95
2022-10-23T10:34:57.797Z,38.56
2022-10-23T10:38:05.491Z,40.00
2022-10-23T10:40:55.848Z,40.43
2022-10-23T10:44:31.744Z,39.82
2022-10-23T10:47:22.241Z,40.32
2022-10-23T10:50:23.215Z,41.63
2022-10-23T10:53:03.361Z,41.59
2022-10-23T10:55:34.591Z,42.37
2022-10-23T10:58:21.430Z,42.04
2022-10-23T11:00:54.824Z,41.76
2022-10-23T11:03:46.968Z,41.28
2022-10-23T11:06:18.907Z,40.83
2022-10-23T11:09:03.850Z,40.28
2022-10-23T11:11:43.539Z,40.04
2022-10-23T11:14:23.282Z,41.74
2022-10-23T11:16:53.201Z,41.69
2022-10-23T11:19:30.930Z,41.44
2022-10-23T11:22:39.476Z,41.34
2022-10-23T11:25:47.202Z,42.47
2022-10-23T11:28:32.596Z,43.01
2022-10-23T11:31:14.179Z,42.86
2022-10-23T11:34:39.253Z,41.32
2022-10-23T11:37:06.690Z,41.68
2022-10-23T11:39:35.505Z,42.27
2022-10-23T11:44:43.293Z,42.17
2022-10-23T11:47:40.007Z,41.52
2022-10-23T11:50:06.966Z,40.96
2022-10-23T11:52:45.729Z,40.86
2022-10-23T11:55:22.520Z,41.28
2022-10-23T11:58:24.395Z,40.59
2022-10-23T12:01:25.378Z,40.70
2022-10-23T12:04:06.828Z,40.24
2022-10-23T12:06:41.727Z,39.43
2022-10-23T12:09:39.916Z,40.21
2022-10-23T12:12:09.538Z,40.05
2022-10-23T12:14:38.802Z,41.49
2022-10-23T12:17:35.767Z,41.34
2022-10-23T12:20:11.115Z,40.21
2022-10-23T12:22:51.680Z,40.30
2022-10-23T12:25:28.005Z,38.59
2022-10-23T12:28:19.532Z,38.68
2022-10-23T12:31:31.007Z,39.55
2022-10-23T12:34:48.179Z,39.78
2022-10-23T12:37:55.110Z,40.36
2022-10-23T12:40:22.409Z,40.33
2022-10-23T12:42:55.702Z,40.32
2022-10-23T12:45:30.460Z,39.37
2022-10-23T12:47:57.388Z,39.24
2022-10-23T12:50:28.409Z,38.65
2022-10-23T12:52:56.094Z,37.64
2022-10-23T12:55:25.931Z,38.98
2022-10-23T12:57:56.626Z,39.40
2022-10-23T13:00:24.955Z,40.33
2022-10-23T13:03:03.829Z,40.61
2022-10-23T13:05:32.727Z,41.40
2022-10-23T13:08:02.453Z,39.88
2022-10-23T13:10:30.930Z,39.97
2022-10-23T13:13:04.650Z,40.93
2022-10-23T13:15:43.973Z,40.91
2022-10-23T13:18:15.425Z,40.36
2022-10-23T13:20:56.723Z,39.48
2022-10-23T13:23:34.176Z,40.22
2022-10-23T13:26:20.399Z,42.00
2022-10-23T13:28:47.282Z,41.79
2022-10-23T13:31:13.692Z,41.40
2022-10-23T13:33:41.549Z,42.00
2022-10-23T13:36:13.525Z,42.89
2022-10-23T13:39:02.347Z,44.50
2022-10-23T13:41:40.941Z,44.89
2022-10-23T13:44:12.175Z,44.13
2022-10-23T13:46:38.708Z,44.06
2022-10-23T13:49:05.521Z,44.80
2022-10-23T13:51:42.686Z,44.47
2022-10-23T13:54:16.569Z,43.51
2022-10-23T13:56:43.338Z,43.25
2022-10-23T13:59:16.460Z,42.50
2022-10-23T14:01:45.695Z,41.19
2022-10-23T14:04:13.324Z,40.48
2022-10-23T14:06:40.357Z,40.81
2022-10-23T14:09:12.038Z,40.77
2022-10-23T14:11:39.506Z,41.83
2022-10-23T14:14:06.104Z,41.48
2022-10-23T14:16:32.879Z,40.87
2022-10-23T14:18:59.457Z,41.58
2022-10-23T14:21:26.070Z,42.28
2022-10-23T14:23:53.868Z,41.90
2022-10-23T14:26:24.764Z,41.27
2022-10-23T14:28:58.366Z,41.43
2022-10-23T14:31:27.452Z,43.40
2022-10-23T14:33:58.857Z,43.95
2022-10-23T14:36:30.872Z,41.84
2022-10-23T14:39:05.300Z,42.30
2022-10-23T14:41:32.316Z,42.26
2022-10-23T14:43:58.938Z,41.59
2022-10-23T14:46:25.891Z,42.30
2022-10-23T14:48:56.446Z,41.52
2022-10-23T14:51:30.072Z,43.21
2022-10-23T14:54:01.785Z,43.36
2022-10-23T14:56:34.811Z,44.00
2022-10-23T14:59:04.538Z,43.38
2022-10-23T15:01:45.544Z,44.02
2022-10-23T15:04:15.897Z,45.56
2022-10-23T15:06:43.446Z,44.35
2022-10-23T15:09:10.098Z,46.15
2022-10-23T15:11:36.690Z,47.05
2022-10-23T15:14:03.442Z,47.48
2022-10-23T15:16:30.591Z,47.45
2022-10-23T15:18:57.654Z,47.33
2022-10-23T15:21:24.246Z,45.83
2022-10-23T15:23:51.346Z,46.79
2022-10-23T15:26:22.762Z,46.74
2022-10-23T15:28:59.088Z,47.30
2022-10-23T15:31:37.860Z,47.33
2022-10-23T15:34:05.861Z,47.42
2022-10-23T15:36:32.903Z,49.42
2022-10-23T15:39:00.240Z,50.93
2022-10-23T15:41:34.670Z,49.93
2022-10-23T15:44:03.324Z,51.64
2022-10-23T15:46:30.260Z,49.92
2022-10-23T15:48:57.021Z,49.82
2022-10-23T15:51:23.745Z,50.17
2022-10-23T15:53:50.304Z,50.29
2022-10-23T15:56:16.895Z,50.21
2022-10-23T15:58:43.463Z,49.98
2022-10-23T16:01:10.272Z,50.94
2022-10-23T16:03:38.652Z,50.02
2022-10-23T16:06:08.459Z,52.11
2022-10-23T16:08:35.622Z,51.66
2022-10-23T16:11:03.290Z,50.38
2022-10-23T16:13:29.969Z,49.90
2022-10-23T16:15:56.484Z,52.17
2022-10-23T16:18:23.674Z,54.15
2022-10-23T16:20:55.048Z,51.91
2022-10-23T16:23:21.932Z,51.60
2022-10-23T16:25:48.468Z,52.97
2022-10-23T16:28:14.988Z,53.11
2022-10-23T16:30:42.475Z,53.25
2022-10-23T16:33:09.586Z,52.48
2022-10-23T16:35:39.686Z,52.65
2022-10-23T16:38:06.261Z,51.84
2022-10-23T16:40:32.785Z,53.29
2022-10-23T16:42:59.487Z,54.48
2022-10-23T16:45:26.135Z,54.92
2022-10-23T16:47:52.670Z,52.80
2022-10-23T16:50:19.215Z,52.44
2022-10-23T16:52:46.049Z,52.92
2022-10-23T16:55:13.374Z,52.16
2022-10-23T16:57:40.058Z,52.06
2022-10-23T17:00:07.562Z,52.75
2022-10-23T17:02:34.309Z,54.16
2022-10-23T17:05:01.000Z,53.51
2022-10-23T17:07:27.572Z,54.51
2022-10-23T17:09:54.131Z,55.03
2022-10-23T17:12:20.683Z,55.43
2022-10-23T17:14:47.249Z,56.19
2022-10-23T17:17:13.791Z,56.46
2022-10-23T17:19:46.056Z,56.44
2022-10-23T17:22:14.191Z,54.15
2022-10-23T17:24:42.179Z,53.81
2022-10-23T17:27:09.661Z,53.01
2022-10-23T17:29:36.366Z,53.48
2022-10-23T17:32:04.078Z,54.82
2022-10-23T17:34:30.639Z,56.54
2022-10-23T17:36:57.612Z,56.24
2022-10-23T17:39:28.045Z,55.41
2022-10-23T17:41:55.571Z,53.15
2022-10-23T17:44:22.652Z,52.75
2022-10-23T17:46:54.138Z,52.63
2022-10-23T17:49:21.831Z,53.59
2022-10-23T17:51:53.811Z,51.78
2022-10-23T17:54:20.400Z,51.28
2022-10-23T17:56:47.013Z,52.02
2022-10-23T17:59:17.465Z,51.12
2022-10-23T18:01:46.504Z,51.43
2022-10-23T18:04:13.485Z,50.23
2022-10-23T18:06:46.891Z,49.45
2022-10-23T18:09:13.479Z,51.77
2022-10-23T18:11:46.833Z,50.42
2022-10-23T18:14:17.025Z,49.91
2022-10-23T18:16:46.032Z,51.49
2022-10-23T18:19:14.428Z,51.37
2022-10-23T18:21:41.037Z,53.11
2022-10-23T18:24:07.641Z,54.37
2022-10-23T18:26:35.150Z,55.11
2022-10-23T18:29:07.093Z,55.17
2022-10-23T18:31:35.546Z,55.83
2022-10-23T18:34:09.326Z,56.84
2022-10-23T18:36:39.062Z,57.30
2022-10-23T18:39:09.493Z,54.16
2022-10-23T18:41:41.513Z,56.35
2022-10-23T18:44:08.544Z,55.41
2022-10-23T18:46:35.495Z,56.50
2022-10-23T18:49:02.111Z,55.90
2022-10-23T18:51:33.313Z,55.73
2022-10-23T18:54:03.496Z,54.34
2022-10-23T18:56:30.403Z,55.48
2022-10-23T18:59:01.691Z,56.51
2022-10-23T19:01:30.336Z,55.91
2022-10-23T19:03:59.240Z,56.98
2022-10-23T19:06:25.900Z,55.69
2022-10-23T19:08:52.526Z,53.47
2022-10-23T19:11:22.188Z,53.94
2022-10-23T19:13:48.810Z,54.88
2022-10-23T19:16:33.532Z,54.71
2022-10-23T19:19:11.721Z,54.11
2022-10-23T19:21:39.535Z,53.87
2022-10-23T19:24:13.870Z,52.57
2022-10-23T19:26:42.048Z,55.41
2022-10-23T19:29:13.084Z,57.33
2022-10-23T19:31:43.108Z,55.62
2022-10-23T19:34:09.644Z,53.89
2022-10-23T19:36:36.257Z,52.61
2022-10-23T19:39:02.830Z,52.50
2022-10-23T19:41:31.081Z,49.46
2022-10-23T19:43:57.883Z,49.62
2022-10-23T19:46:24.776Z,50.37
2022-10-23T19:48:51.348Z,51.69
2022-10-23T19:51:17.993Z,52.18
2022-10-23T19:53:44.591Z,51.65
2022-10-23T19:56:12.832Z,49.88
2022-10-23T19:58:40.343Z,50.59
2022-10-23T20:01:13.876Z,52.48
2022-10-23T20:03:50.578Z,51.03
2022-10-23T20:06:22.615Z,49.95
2022-10-23T20:08:50.116Z,50.40
2022-10-23T20:11:28.220Z,48.96
2022-10-23T20:13:55.263Z,48.94
2022-10-23T20:16:32.495Z,47.40
2022-10-23T20:19:03.167Z,50.60
2022-10-23T20:21:29.901Z,49.15
2022-10-23T20:23:57.692Z,49.49
2022-10-23T20:26:24.288Z,48.80
2022-10-23T20:28:55.871Z,52.40
2022-10-23T20:31:25.483Z,49.53
2022-10-23T20:33:53.563Z,47.64
2022-10-23T20:36:31.264Z,47.41
2022-10-23T20:39:01.513Z,48.45
2022-10-23T20:41:29.109Z,49.52
2022-10-23T20:43:56.339Z,47.48
2022-10-23T20:46:22.967Z,47.25
2022-10-23T20:48:49.902Z,47.02
2022-10-23T20:51:20.310Z,47.11
2022-10-23T20:53:48.173Z,47.59
2022-10-23T20:56:32.503Z,47.80
2022-10-23T20:59:02.135Z,48.89
2022-10-23T21:01:30.406Z,49.34
2022-10-23T21:03:59.718Z,49.46
2022-10-23T21:06:33.964Z,50.79
2022-10-23T21:09:06.663Z,52.20
2022-10-23T21:11:34.573Z,51.01
2022-10-23T21:14:01.207Z,50.26
2022-10-23T21:16:36.935Z,50.11
2022-10-23T21:19:04.500Z,50.70
2022-10-23T21:21:33.059Z,51.31
2022-10-23T21:24:00.866Z,51.03
2022-10-23T21:26:29.502Z,53.14
2022-10-23T21:29:13.759Z,51.34
2022-10-23T21:31:42.663Z,50.69
2022-10-23T21:37:00.185Z,50.24
2022-10-23T21:39:28.492Z,50.41
2022-10-23T21:41:55.016Z,50.19
2022-10-23T21:44:21.584Z,50.40
2022-10-23T21:46:48.233Z,50.63
2022-10-23T21:49:14.812Z,49.65
2022-10-23T21:51:41.419Z,49.31
2022-10-23T21:54:13.048Z,49.88
2022-10-23T21:56:48.531Z,49.28
2022-10-23T21:59:19.754Z,49.70
2022-10-23T22:01:48.647Z,51.32
2022-10-23T22:04:18.119Z,50.54
2022-10-23T22:06:47.377Z,51.21
2022-10-23T22:09:19.181Z,52.58
2022-10-23T22:11:46.086Z,52.17
2022-10-23T22:14:12.676Z,53.85
2022-10-23T22:16:39.376Z,55.36
2022-10-23T22:19:05.980Z,56.50
2022-10-23T22:21:32.570Z,57.92
2022-10-23T22:24:00.984Z,58.07
2022-10-23T22:26:35.666Z,60.42
2022-10-23T22:29:07.455Z,58.24
2022-10-23T22:31:35.956Z,57.89
2022-10-23T22:34:18.936Z,57.42
2022-10-23T22:36:55.544Z,57.29
2022-10-23T22:39:22.991Z,55.52
2022-10-23T22:41:49.689Z,54.09
2022-10-23T22:44:16.643Z,53.58
2022-10-23T22:46:43.652Z,53.33
2022-10-23T22:49:10.718Z,52.78
2022-10-23T22:51:39.275Z,53.50
2022-10-23T22:54:06.157Z,53.56
2022-10-23T22:56:32.869Z,53.61
2022-10-23T22:58:59.404Z,53.74
2022-10-23T23:01:40.172Z,57.24
2022-10-23T23:04:14.068Z,56.81
2022-10-23T23:06:46.487Z,57.02
2022-10-23T23:09:17.893Z,55.74
2022-10-23T23:11:52.036Z,54.20
2022-10-23T23:14:23.408Z,53.36
2022-10-23T23:16:52.990Z,53.04
2022-10-23T23:19:20.223Z,53.36
2022-10-23T23:21:46.773Z,53.01
2022-10-23T23:24:13.658Z,54.22
2022-10-23T23:26:40.572Z,55.86
2022-10-23T23:29:07.091Z,55.44
2022-10-23T23:31:33.631Z,54.57
2022-10-23T23:34:00.891Z,53.83
2022-10-23T23:36:28.401Z,54.59
2022-10-23T23:38:57.302Z,54.25
2022-10-23T23:41:25.615Z,53.61
2022-10-23T23:43:57.568Z,53.67
2022-10-23T23:46:25.131Z,54.33
2022-10-23T23:48:51.673Z,55.03
2022-10-23T23:51:22.468Z,55.55
2022-10-23T23:53:50.151Z,57.23
2022-10-23T23:56:17.103Z,56.89
2022-10-23T23:58:43.612Z,55.34
